createdAt,value
2018-02-03T00:00:45.106Z,13.60
2018-02-03T00:03:13.583Z,11.40
2018-02-03T00:05:41.993Z,10.50
2018-02-03T00:08:09.758Z,11.33
2018-02-03T00:10:37.432Z,9.57
2018-02-03T00:13:05.081Z,10.47
2018-02-03T00:15:32.738Z,10.33
2018-02-03T00:18:00.379Z,10.37
2018-02-03T00:20:28.038Z,11.20
2018-02-03T00:22:56.442Z,11.13
2018-02-03T00:25:24.094Z,11.87
2018-02-03T00:27:51.834Z,9.60
2018-02-03T00:30:20.262Z,9.00
2018-02-03T00:32:47.899Z,9.87
2018-02-03T00:35:15.569Z,8.83
2018-02-03T00:37:43.252Z,7.83
2018-02-03T00:40:10.942Z,7.83
2018-02-03T00:42:39.450Z,14.17
2018-02-03T00:45:07.082Z,7.27
2018-02-03T00:47:35.474Z,7.00
2018-02-03T00:50:03.899Z,10.43
2018-02-03T00:52:31.556Z,10.40
2018-02-03T00:54:59.218Z,10.33
2018-02-03T00:57:26.856Z,9.20
2018-02-03T00:59:54.518Z,9.97
2018-02-03T01:02:22.180Z,10.57
2018-02-03T01:04:49.863Z,9.63
2018-02-03T01:07:17.506Z,9.33
2018-02-03T01:09:45.192Z,10.23
2018-02-03T01:12:13.856Z,11.23
2018-02-03T01:14:41.494Z,9.67
2018-02-03T01:17:09.187Z,9.67
2018-02-03T01:19:37.927Z,10.13
2018-02-03T01:22:06.455Z,10.13
2018-02-03T01:24:34.142Z,9.87
2018-02-03T01:27:01.847Z,9.13
2018-02-03T01:29:29.526Z,10.77
2018-02-03T01:31:57.181Z,11.43
2018-02-03T01:34:26.218Z,11.57
2018-02-03T01:36:53.880Z,11.77
2018-02-03T01:39:21.533Z,12.03
2018-02-03T01:41:49.280Z,12.80
2018-02-03T01:44:16.971Z,12.27
2018-02-03T01:46:44.610Z,11.57
2018-02-03T01:49:12.239Z,12.67
2018-02-03T01:51:39.949Z,10.87
2018-02-03T01:54:07.999Z,9.97
2018-02-03T01:56:35.950Z,9.23
2018-02-03T01:59:04.110Z,11.00
2018-02-03T02:01:31.897Z,12.30
2018-02-03T02:03:59.885Z,10.57
2018-02-03T02:06:27.575Z,10.80
2018-02-03T02:08:56.020Z,12.00
2018-02-03T02:11:23.683Z,9.53
2018-02-03T02:13:51.347Z,11.63
2018-02-03T02:16:19.030Z,10.73
2018-02-03T02:18:47.966Z,11.13
2018-02-03T02:21:16.578Z,13.83
2018-02-03T02:23:47.019Z,9.57
2018-02-03T02:26:14.715Z,11.17
2018-02-03T02:28:42.418Z,9.50
2018-02-03T02:31:10.091Z,10.43
2018-02-03T02:33:37.785Z,8.73
2018-02-03T02:36:05.483Z,7.90
2018-02-03T02:38:33.230Z,9.33
2018-02-03T02:41:00.916Z,8.23
2018-02-03T02:43:28.587Z,8.37
2018-02-03T02:45:56.243Z,9.07
2018-02-03T02:48:24.073Z,9.33
2018-02-03T02:50:51.845Z,11.50
2018-02-03T02:53:19.624Z,10.23
2018-02-03T02:55:47.303Z,9.63
2018-02-03T02:58:15.225Z,7.57
2018-02-03T03:00:43.094Z,7.40
2018-02-03T03:03:10.779Z,10.50
2018-02-03T03:05:38.513Z,8.17
2018-02-03T03:08:06.343Z,8.50
2018-02-03T03:10:34.774Z,9.03
2018-02-03T03:13:02.470Z,9.80
2018-02-03T03:15:30.182Z,8.53
2018-02-03T03:17:58.122Z,8.23
2018-02-03T03:20:26.635Z,8.73
2018-02-03T03:22:54.289Z,10.00
2018-02-03T03:25:21.927Z,9.63
2018-02-03T03:27:50.341Z,9.23
2018-02-03T03:30:19.815Z,8.57
2018-02-03T03:32:48.129Z,8.43
2018-02-03T03:35:15.781Z,7.50
2018-02-03T03:37:43.423Z,7.70
2018-02-03T03:40:11.093Z,6.97
2018-02-03T03:42:38.792Z,6.77
2018-02-03T03:45:06.435Z,7.27
2018-02-03T03:47:34.494Z,6.80
2018-02-03T03:50:02.186Z,6.87
2018-02-03T03:52:29.832Z,6.93
2018-02-03T03:54:58.695Z,6.13
2018-02-03T03:57:26.430Z,5.93
2018-02-03T03:59:54.951Z,6.33
2018-02-03T04:02:23.439Z,7.67
2018-02-03T04:04:51.140Z,7.10
2018-02-03T04:07:19.631Z,6.53
2018-02-03T04:09:48.078Z,7.60
2018-02-03T04:12:15.782Z,6.50
2018-02-03T04:14:44.759Z,7.17
2018-02-03T04:17:12.515Z,10.27
2018-02-03T04:19:40.225Z,6.73
2018-02-03T04:22:07.898Z,7.20
2018-02-03T04:24:35.955Z,8.27
2018-02-03T04:27:04.007Z,8.40
2018-02-03T04:29:31.821Z,8.43
2018-02-03T04:31:59.485Z,7.73
2018-02-03T04:34:27.224Z,8.03
2018-02-03T04:36:54.915Z,8.33
2018-02-03T04:39:23.378Z,9.47
2018-02-03T04:41:51.071Z,7.67
2018-02-03T04:44:18.778Z,8.83
2018-02-03T04:46:46.450Z,7.70
2018-02-03T04:49:14.281Z,7.93
2018-02-03T04:51:41.973Z,7.87
2018-02-03T04:54:09.616Z,8.37
2018-02-03T04:56:38.120Z,9.27
2018-02-03T04:59:07.102Z,8.47
2018-02-03T05:01:34.919Z,7.47
2018-02-03T05:04:03.343Z,8.13
2018-02-03T05:06:32.770Z,8.80
2018-02-03T05:09:00.494Z,8.30
2018-02-03T05:11:28.226Z,10.03
2018-02-03T05:13:55.935Z,10.07
2018-02-03T05:16:23.603Z,8.87
2018-02-03T05:18:51.294Z,8.77
2018-02-03T05:21:20.576Z,9.37
2018-02-03T05:23:48.281Z,8.10
2018-02-03T05:26:15.944Z,10.00
2018-02-03T05:28:43.635Z,9.67
2018-02-03T05:31:11.432Z,8.03
2018-02-03T05:33:39.145Z,8.53
2018-02-03T05:36:06.809Z,7.90
2018-02-03T05:41:08.375Z,7.60
2018-02-03T05:43:43.830Z,8.23
2018-02-03T05:46:11.944Z,8.03
2018-02-03T05:48:40.735Z,8.77
2018-02-03T05:51:09.226Z,8.23
2018-02-03T05:53:37.640Z,8.03
2018-02-03T05:56:05.319Z,9.30
2018-02-03T05:58:33.039Z,7.00
2018-02-03T06:01:01.097Z,6.60
2018-02-03T06:03:29.772Z,7.33
2018-02-03T06:05:58.245Z,8.63
2018-02-03T06:08:26.687Z,7.50
2018-02-03T06:10:54.518Z,6.23
2018-02-03T06:13:22.180Z,6.47
2018-02-03T06:15:50.267Z,7.83
2018-02-03T06:18:18.241Z,6.10
2018-02-03T06:20:47.085Z,7.33
2018-02-03T06:23:15.943Z,5.23
2018-02-03T06:25:43.639Z,5.50
2018-02-03T06:28:12.946Z,4.60
2018-02-03T06:30:40.583Z,5.17
2018-02-03T06:33:09.349Z,4.90
2018-02-03T06:35:37.015Z,4.80
2018-02-03T06:38:07.763Z,4.43
2018-02-03T06:40:36.755Z,4.37
2018-02-03T06:43:04.494Z,3.90
2018-02-03T06:45:32.202Z,3.20
2018-02-03T06:48:00.645Z,3.90
2018-02-03T06:50:28.270Z,4.73
2018-02-03T06:52:55.907Z,3.47
2018-02-03T06:55:23.543Z,4.13
2018-02-03T06:57:52.863Z,7.87
2018-02-03T07:00:20.550Z,6.13
2018-02-03T07:02:48.187Z,5.97
2018-02-03T07:05:16.235Z,7.97
2018-02-03T07:07:45.779Z,7.50
2018-02-03T07:10:13.763Z,9.17
2018-02-03T07:12:41.451Z,13.40
2018-02-03T07:15:09.197Z,8.03
2018-02-03T07:17:36.878Z,7.80
2018-02-03T07:20:04.618Z,10.40
2018-02-03T07:22:32.287Z,7.87
2018-02-03T07:25:00.019Z,9.37
2018-02-03T07:27:27.677Z,9.03
2018-02-03T07:29:55.386Z,11.83
2018-02-03T07:32:23.821Z,9.43
2018-02-03T07:34:51.992Z,9.23
2018-02-03T07:37:19.718Z,8.10
2018-02-03T07:39:49.060Z,9.23
2018-02-03T07:42:17.153Z,8.13
2018-02-03T07:44:45.545Z,9.93
2018-02-03T07:47:13.690Z,7.60
2018-02-03T07:49:41.350Z,7.80
2018-02-03T07:52:09.408Z,9.57
2018-02-03T07:54:37.082Z,8.63
2018-02-03T07:57:05.306Z,7.93
2018-02-03T07:59:32.974Z,9.83
2018-02-03T08:02:00.728Z,8.90
2018-02-03T08:04:29.193Z,9.87
2018-02-03T08:06:57.645Z,11.10
2018-02-03T08:09:25.289Z,12.03
2018-02-03T08:11:53.732Z,12.60
2018-02-03T08:14:21.407Z,11.23
2018-02-03T08:16:49.070Z,10.00
2018-02-03T08:19:16.806Z,8.67
2018-02-03T08:21:45.371Z,12.37
2018-02-03T08:24:13.817Z,10.53
2018-02-03T08:26:41.458Z,14.03
2018-02-03T08:29:09.133Z,9.93
2018-02-03T08:31:36.861Z,8.87
2018-02-03T08:34:07.306Z,9.03
2018-02-03T08:36:35.018Z,8.40
2018-02-03T08:39:04.985Z,9.90
2018-02-03T08:41:32.863Z,9.47
2018-02-03T08:44:01.655Z,9.70
2018-02-03T08:46:29.323Z,14.37
2018-02-03T08:48:57.749Z,11.37
2018-02-03T08:51:25.405Z,8.23
2018-02-03T08:53:54.293Z,7.73
2018-02-03T08:56:23.869Z,10.30
2018-02-03T08:58:51.526Z,9.70
2018-02-03T09:01:19.208Z,8.07
2018-02-03T09:03:49.057Z,9.13
2018-02-03T09:06:16.718Z,7.33
2018-02-03T09:08:44.349Z,8.23
2018-02-03T09:11:12.393Z,7.67
2018-02-03T09:13:41.454Z,8.43
2018-02-03T09:16:09.838Z,9.50
2018-02-03T09:18:37.499Z,7.20
2018-02-03T09:21:05.536Z,7.27
2018-02-03T09:23:33.232Z,9.30
2018-02-03T09:26:00.946Z,6.43
2018-02-03T09:28:28.613Z,4.87
2018-02-03T09:30:56.284Z,7.23
2018-02-03T09:33:23.980Z,8.13
2018-02-03T09:35:51.650Z,6.43
2018-02-03T09:38:19.562Z,6.70
2018-02-03T09:40:47.218Z,5.70
2018-02-03T09:43:16.039Z,4.20
2018-02-03T09:45:43.749Z,5.43
2018-02-03T09:48:11.499Z,6.13
2018-02-03T09:50:39.170Z,7.37
2018-02-03T09:53:07.027Z,5.00
2018-02-03T09:55:34.758Z,8.20
2018-02-03T09:58:02.549Z,6.27
2018-02-03T10:00:30.282Z,6.27
2018-02-03T10:02:58.308Z,5.03
2018-02-03T10:05:26.881Z,5.13
2018-02-03T10:07:55.634Z,6.00
2018-02-03T10:10:23.850Z,6.67
2018-02-03T10:12:52.257Z,5.47
2018-02-03T10:15:19.949Z,5.47
2018-02-03T10:17:47.618Z,5.27
2018-02-03T10:20:15.668Z,6.30
2018-02-03T10:22:44.110Z,7.20
2018-02-03T10:25:12.018Z,5.00
2018-02-03T10:27:39.679Z,6.37
2018-02-03T10:30:07.381Z,6.80
2018-02-03T10:32:35.382Z,7.57
2018-02-03T10:35:03.698Z,8.80
2018-02-03T10:37:31.386Z,6.23
2018-02-03T10:39:59.817Z,7.03
2018-02-03T10:42:27.579Z,7.73
2018-02-03T10:44:55.229Z,6.87
2018-02-03T10:47:23.389Z,8.97
2018-02-03T10:49:51.099Z,7.40
2018-02-03T10:52:18.802Z,6.63
2018-02-03T10:54:46.483Z,7.27
2018-02-03T10:57:14.238Z,8.03
2018-02-03T10:59:41.933Z,8.47
2018-02-03T11:02:09.594Z,8.73
2018-02-03T11:04:37.276Z,6.93
2018-02-03T11:07:05.035Z,7.23
2018-02-03T11:09:32.679Z,8.17
2018-02-03T11:12:00.350Z,7.57
2018-02-03T11:14:28.020Z,11.97
2018-02-03T11:16:56.285Z,8.60
2018-02-03T11:19:24.280Z,13.73
2018-02-03T11:21:52.750Z,7.50
2018-02-03T11:24:20.441Z,9.37
2018-02-03T11:26:48.122Z,8.67
2018-02-03T11:29:15.776Z,8.40
2018-02-03T11:31:43.490Z,9.33
2018-02-03T11:34:11.332Z,8.33
2018-02-03T11:36:39.097Z,9.13
2018-02-03T11:39:07.048Z,10.83
2018-02-03T11:41:34.734Z,10.97
2018-02-03T11:44:02.516Z,7.13
2018-02-03T11:46:31.024Z,11.87
2018-02-03T11:48:58.805Z,10.20
2018-02-03T11:51:27.685Z,6.67
2018-02-03T11:53:55.420Z,7.33
2018-02-03T11:56:23.894Z,8.07
2018-02-03T11:58:52.685Z,7.43
2018-02-03T12:01:21.159Z,8.10
2018-02-03T12:03:48.852Z,9.07
2018-02-03T12:06:16.644Z,7.70
2018-02-03T12:08:44.502Z,6.40
2018-02-03T12:11:12.287Z,6.47
2018-02-03T12:13:40.238Z,10.50
2018-02-03T12:16:07.941Z,6.83
2018-02-03T12:18:36.698Z,5.67
2018-02-03T12:21:06.290Z,8.17
2018-02-03T12:23:34.349Z,7.43
2018-02-03T12:26:02.446Z,9.63
2018-02-03T12:28:30.134Z,8.20
2018-02-03T12:30:58.632Z,8.57
2018-02-03T12:33:26.335Z,8.33
2018-02-03T12:35:54.111Z,7.60
2018-02-03T12:38:21.827Z,9.70
2018-02-03T12:40:49.530Z,7.13
2018-02-03T12:43:17.362Z,8.00
2018-02-03T12:45:45.107Z,8.70
2018-02-03T12:48:12.865Z,8.53
2018-02-03T12:50:40.640Z,8.17
2018-02-03T12:53:08.431Z,7.47
2018-02-03T12:55:36.163Z,7.67
2018-02-03T12:58:04.777Z,8.57
2018-02-03T13:00:32.738Z,8.83
2018-02-03T13:03:00.566Z,8.13
2018-02-03T13:05:28.238Z,7.90
2018-02-03T13:07:55.922Z,9.33
2018-02-03T13:10:24.090Z,9.43
2018-02-03T13:12:52.075Z,8.27
2018-02-03T13:15:19.833Z,8.17
2018-02-03T13:17:48.500Z,7.30
2018-02-03T13:20:16.313Z,8.93
2018-02-03T13:22:44.123Z,11.40
2018-02-03T13:25:11.883Z,9.87
2018-02-03T13:27:39.597Z,9.70
2018-02-03T13:30:07.333Z,9.53
2018-02-03T13:32:35.101Z,9.00
2018-02-03T13:35:02.821Z,7.10
2018-02-03T13:37:30.552Z,11.50
2018-02-03T13:39:58.304Z,10.73
2018-02-03T13:42:26.048Z,9.40
2018-02-03T13:44:53.778Z,8.50
2018-02-03T13:47:21.707Z,8.80
2018-02-03T13:49:50.468Z,7.10
2018-02-03T13:52:18.233Z,9.10
2018-02-03T13:54:45.986Z,9.43
2018-02-03T13:57:13.720Z,11.17
2018-02-03T13:59:41.457Z,9.67
2018-02-03T14:02:09.992Z,8.90
2018-02-03T14:04:37.859Z,8.40
2018-02-03T14:07:05.653Z,8.13
2018-02-03T14:09:33.431Z,10.40
2018-02-03T14:12:01.962Z,11.73
2018-02-03T14:14:29.737Z,13.00
2018-02-03T14:16:57.483Z,12.13
2018-02-03T14:19:25.383Z,8.20
2018-02-03T14:21:53.173Z,8.67
2018-02-03T14:24:27.409Z,9.57
2018-02-03T14:26:56.005Z,10.03
2018-02-03T14:29:23.926Z,9.73
2018-02-03T14:31:52.463Z,10.33
2018-02-03T14:34:20.195Z,8.93
2018-02-03T14:36:47.918Z,9.70
2018-02-03T14:39:15.711Z,9.70
2018-02-03T14:41:43.402Z,9.17
2018-02-03T14:44:11.141Z,9.40
2018-02-03T14:46:38.903Z,7.70
2018-02-03T14:49:06.840Z,9.20
2018-02-03T14:51:34.638Z,9.30
2018-02-03T14:54:02.573Z,9.33
2018-02-03T14:56:31.101Z,9.43
2018-02-03T14:58:58.803Z,7.00
2018-02-03T15:01:26.514Z,9.43
2018-02-03T15:03:54.321Z,8.20
2018-02-03T15:06:22.063Z,7.60
2018-02-03T15:08:49.799Z,7.53
2018-02-03T15:11:17.586Z,8.17
2018-02-03T15:13:45.383Z,8.83
2018-02-03T15:16:14.103Z,8.17
2018-02-03T15:18:41.838Z,6.77
2018-02-03T15:21:10.692Z,7.47
2018-02-03T15:23:38.457Z,5.77
2018-02-03T15:26:06.337Z,6.73
2018-02-03T15:28:34.861Z,9.57
2018-02-03T15:31:02.648Z,7.00
2018-02-03T15:33:30.432Z,6.77
2018-02-03T15:35:58.156Z,9.10
2018-02-03T15:38:26.002Z,10.97
2018-02-03T15:40:54.500Z,4.97
2018-02-03T15:43:22.256Z,5.80
2018-02-03T15:45:50.746Z,7.23
2018-02-03T15:48:18.787Z,6.37
2018-02-03T15:50:47.468Z,4.97
2018-02-03T15:53:15.187Z,6.20
2018-02-03T15:55:42.924Z,7.10
2018-02-03T15:58:10.662Z,5.27
2018-02-03T16:00:39.221Z,6.00
2018-02-03T16:03:07.027Z,5.13
2018-02-03T16:05:34.745Z,4.17
2018-02-03T16:08:02.438Z,5.13
2018-02-03T16:10:30.926Z,4.23
2018-02-03T16:12:58.640Z,7.67
2018-02-03T16:15:26.378Z,3.63
2018-02-03T16:17:54.365Z,3.87
2018-02-03T16:20:22.086Z,4.43
2018-02-03T16:22:49.806Z,4.73
2018-02-03T16:25:17.496Z,3.83
2018-02-03T16:27:46.039Z,4.87
2018-02-03T16:30:13.765Z,4.20
2018-02-03T16:32:41.506Z,5.33
2018-02-03T16:35:09.526Z,8.83
2018-02-03T16:37:37.257Z,7.57
2018-02-03T16:40:04.934Z,5.10
2018-02-03T16:45:07.178Z,4.33
2018-02-03T16:47:35.752Z,4.60
2018-02-03T16:50:04.250Z,6.67
2018-02-03T16:52:32.004Z,4.10
2018-02-03T16:54:59.773Z,4.60
2018-02-03T16:57:27.491Z,5.20
2018-02-03T16:59:55.268Z,4.63
2018-02-03T17:02:22.980Z,3.30
2018-02-03T17:04:50.754Z,6.30
2018-02-03T17:07:18.458Z,3.57
2018-02-03T17:09:46.176Z,4.00
2018-02-03T17:12:13.924Z,4.27
2018-02-03T17:14:41.669Z,4.57
2018-02-03T17:17:10.196Z,3.80
2018-02-03T17:19:37.940Z,3.57
2018-02-03T17:22:05.664Z,5.70
2018-02-03T17:24:34.156Z,5.40
2018-02-03T17:27:01.897Z,5.07
2018-02-03T17:29:30.458Z,5.60
2018-02-03T17:31:58.953Z,4.73
2018-02-03T17:34:26.662Z,5.83
2018-02-03T17:37:00.036Z,4.00
2018-02-03T17:39:27.840Z,4.13
2018-02-03T17:41:56.878Z,4.50
2018-02-03T17:44:25.418Z,6.30
2018-02-03T17:46:58.855Z,7.43
2018-02-03T17:49:27.352Z,5.87
2018-02-03T17:51:55.135Z,6.80
2018-02-03T17:54:22.903Z,7.80
2018-02-03T17:56:56.364Z,5.93
2018-02-03T17:59:24.904Z,6.60
2018-02-03T18:01:52.660Z,6.17
2018-02-03T18:04:20.371Z,6.37
2018-02-03T18:06:54.492Z,5.20
2018-02-03T18:09:22.237Z,6.43
2018-02-03T18:11:50.737Z,6.90
2018-02-03T18:14:18.445Z,4.57
2018-02-03T18:16:46.179Z,7.43
2018-02-03T18:19:13.918Z,6.80
2018-02-03T18:21:41.772Z,5.20
2018-02-03T18:24:10.251Z,4.83
2018-02-03T18:26:38.757Z,6.43
2018-02-03T18:29:06.487Z,10.10
2018-02-03T18:31:34.958Z,9.23
2018-02-03T18:34:02.693Z,8.00
2018-02-03T18:36:30.413Z,7.10
2018-02-03T18:38:58.936Z,5.57
2018-02-03T18:41:26.597Z,7.47
2018-02-03T18:43:54.345Z,6.87
2018-02-03T18:46:22.142Z,8.57
2018-02-03T18:48:49.895Z,7.40
2018-02-03T18:51:17.619Z,8.40
2018-02-03T18:53:45.317Z,8.83
2018-02-03T18:56:13.089Z,5.83
2018-02-03T18:58:41.686Z,6.07
2018-02-03T19:01:10.154Z,6.70
2018-02-03T19:03:37.866Z,5.67
2018-02-03T19:06:05.536Z,7.37
2018-02-03T19:08:33.318Z,6.53
2018-02-03T19:11:01.818Z,6.00
2018-02-03T19:13:29.548Z,6.33
2018-02-03T19:15:57.221Z,11.30
2018-02-03T19:18:24.890Z,9.50
2018-02-03T19:20:52.769Z,7.40
2018-02-03T19:23:20.448Z,6.40
2018-02-03T19:25:48.910Z,8.43
2018-02-03T19:28:16.607Z,6.73
2018-02-03T19:30:45.141Z,6.30
2018-02-03T19:33:12.836Z,8.80
2018-02-03T19:35:41.281Z,7.57
2018-02-03T19:38:09.011Z,8.37
2018-02-03T19:40:36.693Z,9.33
2018-02-03T19:43:04.355Z,11.37
2018-02-03T19:45:32.025Z,11.90
2018-02-03T19:47:59.765Z,9.27
2018-02-03T19:50:28.271Z,10.57
2018-02-03T19:52:55.922Z,9.20
2018-02-03T19:55:23.627Z,9.77
2018-02-03T19:57:52.109Z,9.40
2018-02-03T20:00:20.542Z,11.37
2018-02-03T20:02:48.303Z,10.87
2018-02-03T20:05:15.996Z,8.47
2018-02-03T20:07:43.686Z,9.77
2018-02-03T20:10:11.483Z,7.70
2018-02-03T20:12:39.159Z,8.37
2018-02-03T20:15:06.833Z,8.30
2018-02-03T20:17:34.558Z,11.57
2018-02-03T20:20:02.269Z,9.97
2018-02-03T20:22:29.963Z,9.23
2018-02-03T20:24:58.450Z,10.03
2018-02-03T20:27:26.141Z,8.50
2018-02-03T20:29:53.800Z,8.93
2018-02-03T20:32:21.524Z,9.50
2018-02-03T20:34:49.282Z,8.90
2018-02-03T20:37:17.034Z,10.87
2018-02-03T20:39:45.557Z,9.90
2018-02-03T20:42:13.342Z,8.73
2018-02-03T20:44:41.194Z,8.53
2018-02-03T20:47:09.038Z,7.57
2018-02-03T20:49:37.589Z,6.50
2018-02-03T20:52:06.099Z,7.17
2018-02-03T20:54:35.042Z,6.37
2018-02-03T20:57:02.936Z,5.20
2018-02-03T20:59:30.717Z,5.43
2018-02-03T21:01:59.016Z,6.23
2018-02-03T21:04:26.766Z,5.07
2018-02-03T21:06:54.644Z,4.97
2018-02-03T21:09:22.438Z,4.63
2018-02-03T21:11:50.987Z,7.33
2018-02-03T21:14:18.734Z,5.43
2018-02-03T21:16:46.500Z,6.00
2018-02-03T21:19:14.256Z,6.70
2018-02-03T21:21:41.977Z,5.97
2018-02-03T21:24:10.486Z,8.00
2018-02-03T21:26:38.236Z,7.90
2018-02-03T21:29:05.992Z,6.90
2018-02-03T21:31:34.517Z,10.00
2018-02-03T21:34:02.291Z,6.03
2018-02-03T21:36:29.998Z,7.20
2018-02-03T21:38:58.580Z,7.33
2018-02-03T21:41:27.044Z,5.90
2018-02-03T21:43:54.702Z,7.33
2018-02-03T21:46:22.387Z,8.13
2018-02-03T21:48:50.841Z,8.60
2018-02-03T21:51:18.498Z,8.20
2018-02-03T21:53:46.144Z,7.50
2018-02-03T21:56:13.770Z,8.17
2018-02-03T21:58:41.432Z,8.80
2018-02-03T22:01:09.128Z,8.13
2018-02-03T22:06:28.928Z,9.63
2018-02-03T22:08:58.401Z,9.93
2018-02-03T22:11:27.889Z,10.20
2018-02-03T22:13:57.437Z,9.80
2018-02-03T22:16:27.321Z,8.80
2018-02-03T22:18:56.147Z,8.83
2018-02-03T22:21:25.128Z,9.33
2018-02-03T22:23:54.960Z,8.77
2018-02-03T22:26:23.642Z,11.33
2018-02-03T22:28:53.336Z,7.73
2018-02-03T22:31:23.041Z,9.80
2018-02-03T22:33:51.874Z,9.63
2018-02-03T22:36:21.385Z,8.73
2018-02-03T22:38:50.936Z,7.53
2018-02-03T22:41:19.531Z,9.13
2018-02-03T22:43:48.922Z,10.17
2018-02-03T22:46:18.323Z,9.60
2018-02-03T22:48:47.771Z,9.17
2018-02-03T22:51:16.265Z,10.13
2018-02-03T22:53:46.119Z,9.03
2018-02-03T22:56:14.810Z,8.83
2018-02-03T22:58:43.572Z,7.13
2018-02-03T23:01:17.863Z,7.47
2018-02-03T23:03:46.689Z,9.93
2018-02-03T23:06:15.178Z,8.17
2018-02-03T23:08:43.895Z,6.90
2018-02-03T23:11:13.200Z,7.73
2018-02-03T23:13:42.691Z,7.93
2018-02-03T23:16:12.202Z,8.07
2018-02-03T23:18:40.794Z,7.77
2018-02-03T23:21:09.427Z,7.27
2018-02-03T23:23:37.975Z,10.03
2018-02-03T23:26:07.461Z,6.67
2018-02-03T23:28:36.916Z,5.57
2018-02-03T23:31:06.142Z,6.23
2018-02-03T23:33:34.595Z,6.53
2018-02-03T23:36:02.984Z,5.80
2018-02-03T23:38:31.306Z,6.53
2018-02-03T23:40:59.595Z,7.70
2018-02-03T23:43:27.953Z,7.77
2018-02-03T23:45:56.280Z,7.77
2018-02-03T23:48:24.559Z,7.60
2018-02-03T23:50:52.556Z,7.10
2018-02-03T23:53:20.645Z,4.83
2018-02-03T23:55:48.568Z,8.77
2018-02-03T23:58:16.473Z,6.73
